Time;durP1;ratioP1;P1;durP2;ratioP2;P2;SDS_P1;SDS_P2;PMS_P1;PMS_P2;Temp;Humidity;BMP_temperature;BMP_pressure;BME280_temperature;BME280_humidity;BME280_pressure;Samples;Min_cycle;Max_cycle;Signal;HPM_P1;HPM_P2
2022/12/25 00:03:33;;;;;;;12.45;3.88;;;;;;;11.18;100.00;99900.44;12203830;19;20065;-85
2022/12/25 00:07:35;;;;;;;11.65;4.43;;;;;;;11.20;100.00;99903.78;12202449;19;20036;-82
2022/12/25 00:11:36;;;;;;;14.73;4.22;;;;;;;11.17;100.00;99904.28;12180236;19;20031;-85
2022/12/25 00:15:40;;;;;;;11.18;4.15;;;;;;;11.16;100.00;99895.19;12201979;19;20006;-83
2022/12/25 00:19:42;;;;;;;11.82;3.72;;;;;;;11.13;100.00;99901.22;12204468;19;20027;-84
2022/12/25 00:23:43;;;;;;;15.25;3.60;;;;;;;11.15;100.00;99882.50;12179062;19;20030;-83
2022/12/25 00:27:45;;;;;;;12.25;4.20;;;;;;;11.16;100.00;99884.16;12200814;19;20002;-83
2022/12/25 00:31:47;;;;;;;12.23;3.40;;;;;;;11.15;100.00;99874.22;12198058;19;20483;-85
2022/12/25 00:35:59;;;;;;;8.18;3.85;;;;;;;11.12;100.00;99869.22;12178071;19;20432;-83
2022/12/25 00:40:00;;;;;;;14.85;3.33;;;;;;;11.06;100.00;99870.19;12203304;19;20024;-85
2022/12/25 00:44:02;;;;;;;8.35;3.58;;;;;;;11.08;100.00;99864.44;12180323;19;20472;-83
2022/12/25 00:48:04;;;;;;;8.52;3.00;;;;;;;11.01;100.00;99872.06;12200558;19;20027;-86
2022/12/25 00:52:06;;;;;;;8.00;3.30;;;;;;;10.91;100.00;99873.53;12197502;19;20404;-83
2022/12/25 00:56:09;;;;;;;12.57;3.40;;;;;;;10.93;100.00;99882.41;12179338;19;20040;-83
2022/12/25 01:00:11;;;;;;;;;;;;;;;10.89;100.00;99881.25;12203181;19;20459;-82
2022/12/25 01:04:13;;;;;;;9.93;2.90;;;;;;;10.88;100.00;99896.09;12200813;19;19907;-84
2022/12/25 01:08:14;;;;;;;7.75;3.03;;;;;;;10.89;100.00;99899.72;12178237;19;20010;-86
2022/12/25 01:12:16;;;;;;;12.45;3.42;;;;;;;10.89;100.00;99895.03;12198324;19;20036;-83
2022/12/25 01:16:20;;;;;;;6.32;3.03;;;;;;;10.89;100.00;99903.28;12197353;19;20370;-83
2022/12/25 01:20:22;;;;;;;10.43;3.45;;;;;;;10.91;100.00;99903.84;12179757;19;20076;-84
2022/12/25 01:24:23;;;;;;;12.00;3.05;;;;;;;10.91;100.00;99894.75;12199694;19;20034;-84
2022/12/25 01:28:25;;;;;;;14.80;3.20;;;;;;;10.92;100.00;99908.31;12197924;19;20002;-82
2022/12/25 01:32:27;;;;;;;12.68;3.33;;;;;;;10.93;100.00;99923.75;12176761;19;20006;-85
2022/12/25 01:36:28;;;;;;;10.38;3.22;;;;;;;10.93;100.00;99918.25;12197989;19;20465;-86
2022/12/25 01:40:33;;;;;;;7.63;2.80;;;;;;;10.90;100.00;99917.91;12204077;19;20326;-85
2022/12/25 01:44:34;;;;;;;8.05;2.83;;;;;;;10.81;100.00;99911.13;12179655;19;20014;-86
2022/12/25 01:48:38;;;;;;;9.38;3.13;;;;;;;10.74;100.00;99916.81;12196432;19;20046;-84
2022/12/25 01:52:40;;;;;;;9.02;3.08;;;;;;;10.77;100.00;99918.22;12199070;19;20042;-85
2022/12/25 01:56:44;;;;;;;8.77;3.35;;;;;;;10.69;100.00;99914.78;12176809;19;20017;-84
2022/12/25 02:00:54;;;;;;;8.63;3.03;;;;;;;10.72;100.00;99902.44;12198225;19;20039;-84
2022/12/25 02:05:04;;;;;;;10.77;3.65;;;;;;;10.77;100.00;99913.56;12200014;19;20033;-82
2022/12/25 02:09:06;;;;;;;6.55;2.97;;;;;;;10.80;100.00;99903.97;12208043;19;20664;-85
2022/12/25 02:13:08;;;;;;;12.02;2.90;;;;;;;10.79;100.00;99897.59;12209416;19;20078;-84
2022/12/25 02:17:31;;;;;;;9.43;2.73;;;;;;;10.79;100.00;99881.06;12173699;19;20006;-84
2022/12/25 02:21:51;;;;;;;5.93;2.75;;;;;;;10.77;100.00;99847.41;12204925;19;20006;-82
2022/12/25 02:26:23;;;;;;;14.55;3.17;;;;;;;10.67;100.00;99847.22;12219798;19;20017;-85
2022/12/25 02:30:27;;;;;;;11.77;2.97;;;;;;;10.47;100.00;99850.47;12225722;19;20092;-86
2022/12/25 02:34:47;;;;;;;8.73;2.95;;;;;;;10.28;100.00;99841.56;12205266;19;20009;-83
2022/12/25 03:18:33;;;;;;;13.05;3.15;;;;;;;9.91;100.00;99833.69;12196051;19;20011;-82
2022/12/25 03:26:56;;;;;;;9.32;2.38;;;;;;;9.96;100.00;99822.75;12193384;19;20310;-82
2022/12/25 03:31:25;;;;;;;5.40;1.93;;;;;;;9.89;100.00;99824.00;12278836;19;20042;-85
2022/12/25 03:35:45;;;;;;;5.30;1.90;;;;;;;9.79;100.00;99824.66;12237953;19;20022;-83
2022/12/25 04:37:21;;;;;;;8.45;2.00;;;;;;;10.65;100.00;99797.88;12196817;19;20010;-83
2022/12/25 04:41:23;;;;;;;2.95;1.13;;;;;;;10.72;100.00;99797.72;12179320;19;20014;-83
2022/12/25 04:45:25;;;;;;;5.35;1.30;;;;;;;10.79;100.00;99798.34;12202129;19;20126;-83
2022/12/25 04:49:26;;;;;;;3.13;1.25;;;;;;;10.85;100.00;99802.88;12207501;19;20020;-84
2022/12/25 04:53:28;;;;;;;7.25;1.50;;;;;;;10.93;100.00;99804.38;12177149;19;20018;-83
2022/12/25 04:57:30;;;;;;;2.35;0.88;;;;;;;10.94;100.00;99801.34;12198355;19;20397;-83
2022/12/25 05:01:31;;;;;;;5.03;1.73;;;;;;;10.98;100.00;99812.72;12196945;19;20002;-83
2022/12/25 05:05:33;;;;;;;5.63;1.40;;;;;;;11.01;100.00;99817.75;12176669;19;20415;-84
2022/12/25 05:09:35;;;;;;;3.38;1.02;;;;;;;11.00;100.00;99806.94;12201555;19;19998;-83
2022/12/25 05:13:37;;;;;;;7.72;1.90;;;;;;;10.98;100.00;99781.56;12196088;19;20473;-84
2022/12/25 05:17:39;;;;;;;5.60;1.38;;;;;;;10.98;100.00;99787.91;12178034;19;20003;-84
2022/12/25 05:21:40;;;;;;;4.30;1.30;;;;;;;11.00;100.00;99790.41;12197250;19;20020;-84
2022/12/25 05:25:42;;;;;;;10.00;2.33;;;;;;;11.01;100.00;99789.34;12203256;19;20018;-85
2022/12/25 05:29:44;;;;;;;4.68;1.35;;;;;;;11.01;100.00;99790.16;12178071;19;20040;-85
2022/12/25 05:33:50;;;;;;;5.13;1.15;;;;;;;11.04;100.00;99795.19;12197742;19;20003;-83
2022/12/25 05:37:51;;;;;;;3.60;1.17;;;;;;;11.03;100.00;99787.97;12194709;19;20007;-84
2022/12/25 05:41:53;;;;;;;4.40;1.30;;;;;;;10.97;100.00;99777.13;12181300;19;20002;-85
2022/12/25 05:45:55;;;;;;;4.43;0.90;;;;;;;10.96;100.00;99784.56;12199694;19;20085;-85
2022/12/25 05:49:56;;;;;;;6.30;1.30;;;;;;;10.95;100.00;99783.75;12200178;19;20191;-85
2022/12/25 05:53:58;;;;;;;5.50;1.45;;;;;;;10.93;100.00;99772.13;12178289;19;20007;-86
2022/12/25 05:58:00;;;;;;;3.85;1.23;;;;;;;10.92;100.00;99781.50;12218454;19;20466;-83
2022/12/25 06:02:01;;;;;;;8.25;1.13;;;;;;;10.90;100.00;99793.84;12176729;19;20006;-85
2022/12/25 06:06:03;;;;;;;2.63;1.10;;;;;;;10.89;100.00;99787.50;12199382;19;20424;-83
2022/12/25 06:10:06;;;;;;;5.80;1.40;;;;;;;10.87;100.00;99794.34;12194860;19;20043;-83
2022/12/25 06:14:11;;;;;;;6.00;1.23;;;;;;;10.82;100.00;99792.34;12172188;19;20047;-83
2022/12/25 06:18:13;;;;;;;3.78;1.10;;;;;;;10.81;100.00;99784.34;12195469;19;20010;-83
2022/12/25 06:22:14;;;;;;;2.25;0.98;;;;;;;10.83;100.00;99785.75;12196513;19;20027;-83
2022/12/25 06:26:18;;;;;;;2.03;1.00;;;;;;;10.83;100.00;99779.41;12175606;19;20014;-83
2022/12/25 06:30:20;;;;;;;3.45;1.05;;;;;;;10.82;100.00;99769.47;12196053;19;20003;-83
2022/12/25 06:34:22;;;;;;;3.80;1.00;;;;;;;10.82;100.00;99770.28;12194793;19;20061;-83
2022/12/25 06:38:23;;;;;;;2.92;0.90;;;;;;;10.80;100.00;99763.38;12173285;19;20007;-84
2022/12/25 06:42:25;;;;;;;3.53;1.48;;;;;;;10.80;100.00;99755.94;12196399;19;20030;-85
2022/12/25 06:46:28;;;;;;;6.60;1.05;;;;;;;10.81;100.00;99757.59;12196342;19;20013;-83
2022/12/25 06:50:30;;;;;;;4.10;1.30;;;;;;;10.80;100.00;99758.72;12174116;19;20633;-84
2022/12/25 06:54:32;;;;;;;4.25;1.30;;;;;;;10.83;100.00;99749.09;12194658;19;20040;-86
2022/12/25 06:58:33;;;;;;;3.60;1.48;;;;;;;10.85;100.00;99768.94;12193655;19;20003;-84
2022/12/25 07:02:37;;;;;;;2.88;1.00;;;;;;;10.87;100.00;99772.31;12177835;19;20002;-83
2022/12/25 07:06:39;;;;;;;5.57;1.20;;;;;;;10.86;100.00;99777.00;12204960;19;20003;-83
2022/12/25 07:10:40;;;;;;;4.07;1.25;;;;;;;10.80;100.00;99786.28;12207450;19;20031;-84
2022/12/25 07:14:43;;;;;;;6.90;1.50;;;;;;;10.81;100.00;99763.13;12183447;19;20003;-83
2022/12/25 07:18:45;;;;;;;3.15;1.00;;;;;;;10.83;100.00;99763.72;12207633;19;20026;-83
2022/12/25 07:22:46;;;;;;;3.35;1.10;;;;;;;10.83;100.00;99752.69;12220044;19;20524;-83
2022/12/25 07:26:50;;;;;;;4.30;1.27;;;;;;;10.84;100.00;99750.75;12234881;19;20014;-83
2022/12/25 07:30:52;;;;;;;3.70;1.15;;;;;;;10.81;100.00;99749.34;12224724;19;20006;-84
2022/12/25 07:34:54;;;;;;;3.50;1.00;;;;;;;10.76;100.00;99751.19;12232386;19;20015;-84
2022/12/25 07:38:56;;;;;;;6.38;1.13;;;;;;;10.73;100.00;99739.56;12190135;19;20031;-84
2022/12/25 07:42:57;;;;;;;4.37;1.50;;;;;;;10.74;100.00;99740.41;12207828;19;20011;-84
2022/12/25 07:46:59;;;;;;;3.03;1.33;;;;;;;10.76;100.00;99726.38;12187044;19;20028;-85
2022/12/25 07:51:04;;;;;;;5.82;1.13;;;;;;;10.74;100.00;99732.16;12208247;19;20341;-84
2022/12/25 07:55:06;;;;;;;3.90;1.48;;;;;;;10.71;100.00;99722.47;12203414;19;20687;-83
2022/12/25 07:59:08;;;;;;;4.32;1.50;;;;;;;10.69;100.00;99737.59;12186742;19;20002;-83
2022/12/25 08:03:48;;;;;;;3.72;1.30;;;;;;;10.59;100.00;99737.41;12203467;19;20366;-84
2022/12/25 08:07:53;;;;;;;10.15;4.45;;;;;;;10.47;100.00;99751.31;12200192;19;19999;-84
2022/12/25 08:11:58;;;;;;;6.47;2.90;;;;;;;10.52;100.00;99747.78;12180035;19;20002;-85
2022/12/25 08:16:02;;;;;;;4.55;2.08;;;;;;;10.60;100.00;99726.16;12198756;19;20407;-84
2022/12/25 08:20:04;;;;;;;13.32;4.35;;;;;;;10.60;100.00;99725.31;12183586;19;20037;-82
2022/12/25 08:24:06;;;;;;;33.28;12.30;;;;;;;10.60;100.00;99717.88;12202799;19;20358;-82
2022/12/25 08:28:08;;;;;;;36.03;14.37;;;;;;;10.66;100.00;99702.25;12202888;19;20006;-82
2022/12/25 08:32:11;;;;;;;13.57;5.90;;;;;;;10.73;100.00;99706.50;12181145;19;20002;-82
2022/12/25 08:36:13;;;;;;;20.38;6.68;;;;;;;10.81;100.00;99719.03;12200715;19;20032;-83
2022/12/25 08:40:15;;;;;;;7.05;3.22;;;;;;;10.82;100.00;99712.41;12202411;19;20370;-82
2022/12/25 08:44:16;;;;;;;5.30;2.38;;;;;;;10.90;100.00;99689.09;12178813;19;20006;-82
2022/12/25 08:48:18;;;;;;;8.45;3.22;;;;;;;11.02;100.00;99666.91;12200848;19;20469;-82
2022/12/25 08:52:20;;;;;;;4.22;2.22;;;;;;;11.11;100.00;99657.09;12198857;19;20002;-83
2022/12/25 08:56:21;;;;;;;7.20;2.70;;;;;;;11.24;100.00;99661.38;12181040;19;20031;-82
2022/12/25 09:00:23;;;;;;;6.40;2.00;;;;;;;11.37;100.00;99705.97;12201901;19;20011;-84
2022/12/25 09:04:25;;;;;;;8.10;2.75;;;;;;;11.39;100.00;99701.03;12199976;19;20010;-84
2022/12/25 09:08:27;;;;;;;10.10;2.50;;;;;;;11.37;100.00;99713.41;12175062;19;20022;-87
2022/12/25 09:12:29;;;;;;;10.02;3.05;;;;;;;11.36;100.00;99715.34;12197093;19;20369;-85
2022/12/25 09:16:31;;;;;;;8.20;3.67;;;;;;;11.29;100.00;99722.13;12178829;19;20485;-82
2022/12/25 09:20:33;;;;;;;7.53;3.45;;;;;;;11.22;100.00;99725.09;12188025;19;20362;-82
2022/12/25 09:24:35;;;;;;;6.30;2.55;;;;;;;11.17;100.00;99745.16;12205386;19;20027;-82
2022/12/25 09:28:36;;;;;;;5.55;2.72;;;;;;;11.15;100.00;99747.34;12199526;19;20035;-83
2022/12/25 09:32:39;;;;;;;8.38;3.00;;;;;;;11.26;100.00;99733.69;12177838;19;20006;-84
2022/12/25 09:36:40;;;;;;;10.52;3.45;;;;;;;11.37;100.00;99735.50;12202348;19;20023;-82
2022/12/25 09:40:42;;;;;;;7.63;2.97;;;;;;;11.48;100.00;99719.88;12206887;19;20035;-85
2022/12/25 09:44:52;;;;;;;11.02;4.28;;;;;;;11.59;100.00;99730.78;12183729;19;20479;-84
2022/12/25 09:49:04;;;;;;;8.18;3.55;;;;;;;11.67;100.00;99737.78;12208751;19;20010;-82
2022/12/25 09:53:11;;;;;;;7.22;3.33;;;;;;;11.73;100.00;99725.69;12206878;19;20047;-84
2022/12/25 09:57:14;;;;;;;7.22;3.47;;;;;;;11.76;100.00;99713.31;12243619;19;20029;-82
2022/12/25 10:01:39;;;;;;;9.27;3.30;;;;;;;11.82;100.00;99685.47;12218418;19;20003;-83
2022/12/25 10:06:16;;;;;;;8.25;4.40;;;;;;;12.02;100.00;99667.47;12187451;19;20006;-83
2022/12/25 10:10:39;;;;;;;10.10;3.88;;;;;;;12.26;100.00;99656.91;12205773;19;20794;-83
2022/12/25 10:14:55;;;;;;;;;;;;;;;12.36;100.00;99653.38;12181639;19;20086;-83
2022/12/25 10:19:26;;;;;;;5.88;2.58;;;;;;;12.52;100.00;99644.06;12195960;19;20433;-83
2022/12/25 10:23:48;;;;;;;5.22;2.30;;;;;;;12.66;100.00;99627.84;12179752;19;20058;-83
2022/12/25 10:27:53;;;;;;;10.55;2.85;;;;;;;12.82;100.00;99629.63;12195022;19;20471;-84
2022/12/25 10:31:55;;;;;;;8.88;2.72;;;;;;;12.97;100.00;99612.25;12201765;19;20023;-82
2022/12/25 10:35:57;;;;;;;7.10;2.73;;;;;;;12.94;100.00;99612.81;12174132;19;20003;-82
2022/12/25 10:39:58;;;;;;;7.00;2.70;;;;;;;12.95;100.00;99603.38;12216869;19;20243;-82
2022/12/25 10:44:14;;;;;;;7.63;2.72;;;;;;;13.05;100.00;99597.88;12213016;19;20003;-82
2022/12/25 10:48:23;;;;;;;9.63;3.03;;;;;;;13.15;100.00;99605.41;12191572;19;20010;-83
2022/12/25 10:52:27;;;;;;;5.97;2.80;;;;;;;13.30;100.00;99611.00;12207488;19;20556;-82
2022/12/25 10:56:29;;;;;;;5.88;2.85;;;;;;;13.26;100.00;99609.03;12194836;19;20014;-82
2022/12/25 11:00:32;;;;;;;17.90;4.17;;;;;;;13.12;100.00;99619.78;12222171;19;20369;-81
2022/12/25 11:04:34;;;;;;;9.95;3.33;;;;;;;12.98;100.00;99625.78;12204733;19;20030;-84
2022/12/25 11:08:38;;;;;;;7.70;3.67;;;;;;;12.84;100.00;99626.56;12183213;19;20002;-81
2022/12/25 11:12:43;;;;;;;4.25;2.30;;;;;;;12.73;100.00;99618.22;12207698;19;20021;-81
2022/12/25 11:16:45;;;;;;;5.75;2.85;;;;;;;12.56;100.00;99609.28;12209155;19;20073;-81
2022/12/25 11:20:52;;;;;;;5.03;2.73;;;;;;;12.41;100.00;99604.50;12186105;19;20006;-81
2022/12/25 11:24:54;;;;;;;9.38;3.15;;;;;;;12.45;100.00;99613.91;12207686;19;20003;-80
2022/12/25 11:28:56;;;;;;;9.17;4.10;;;;;;;12.42;100.00;99614.44;12206645;19;20006;-81
2022/12/25 11:33:05;;;;;;;7.80;3.65;;;;;;;12.29;100.00;99617.69;12181172;19;20408;-82
2022/12/25 11:37:16;;;;;;;7.90;3.72;;;;;;;12.20;100.00;99611.00;12218095;19;20011;-81
2022/12/25 11:41:22;;;;;;;8.43;4.18;;;;;;;12.14;100.00;99609.31;12201092;19;20003;-82
2022/12/25 11:45:32;;;;;;;7.53;4.07;;;;;;;12.17;100.00;99617.06;12229044;19;19999;-81
2022/12/25 11:49:42;;;;;;;8.32;4.22;;;;;;;12.18;100.00;99599.38;12218969;19;20002;-81
2022/12/25 11:53:53;;;;;;;8.90;3.70;;;;;;;12.15;100.00;99584.16;12190965;19;20542;-82
2022/12/25 11:58:00;;;;;;;9.65;5.10;;;;;;;12.18;100.00;99580.88;12209239;19;20039;-81
2022/12/25 12:02:23;;;;;;;8.27;4.35;;;;;;;12.24;100.00;99570.69;12212012;19;20007;-81
2022/12/25 12:06:49;;;;;;;8.93;3.85;;;;;;;12.40;100.00;99547.56;12190528;19;20006;-81
2022/12/25 12:11:18;;;;;;;11.43;4.88;;;;;;;12.62;100.00;99517.00;12215345;19;20069;-81
2022/12/25 12:15:40;;;;;;;9.07;4.07;;;;;;;12.79;100.00;99505.72;12190089;19;20011;-82
2022/12/25 12:19:41;;;;;;;8.43;3.70;;;;;;;13.02;100.00;99501.63;12211208;19;20054;-81
2022/12/25 12:24:09;;;;;;;7.65;3.97;;;;;;;13.22;100.00;99509.94;12176709;19;20014;-81
2022/12/25 12:28:23;;;;;;;6.97;3.17;;;;;;;13.41;100.00;99502.00;12206779;19;20010;-81
2022/12/25 12:32:30;;;;;;;6.40;3.65;;;;;;;13.90;100.00;99508.88;12191155;19;20024;-81
2022/12/25 12:36:32;;;;;;;7.70;3.58;;;;;;;14.30;100.00;99510.72;12208987;19;20034;-81
2022/12/25 12:40:43;;;;;;;5.65;3.58;;;;;;;14.79;100.00;99510.00;12212636;19;20015;-82
2022/12/25 12:44:45;;;;;;;7.75;4.18;;;;;;;15.08;100.00;99517.63;12229597;19;20011;-83
2022/12/25 12:48:49;;;;;;;7.47;3.92;;;;;;;15.24;100.00;99526.69;12264354;19;19995;-82
2022/12/25 12:52:50;;;;;;;9.98;3.75;;;;;;;15.03;100.00;99524.03;12228579;19;20017;-82
2022/12/25 12:57:20;;;;;;;6.13;3.30;;;;;;;14.81;100.00;99523.59;12182930;19;20018;-81
2022/12/25 13:01:25;;;;;;;8.85;3.40;;;;;;;14.71;100.00;99520.88;12206874;19;20014;-82
2022/12/25 13:05:37;;;;;;;6.05;3.35;;;;;;;14.49;100.00;99513.72;12188409;19;20021;-82
2022/12/25 13:10:07;;;;;;;7.57;3.90;;;;;;;14.38;100.00;99514.88;12210009;19;20008;-82
2022/12/25 13:14:19;;;;;;;9.23;3.58;;;;;;;14.10;100.00;99510.78;12183877;19;19998;-82
2022/12/25 13:18:20;;;;;;;7.50;3.97;;;;;;;13.96;100.00;99499.47;12206282;19;20019;-82
2022/12/25 13:22:31;;;;;;;7.30;4.03;;;;;;;13.96;100.00;99496.69;12205228;19;20522;-83
2022/12/25 13:26:33;;;;;;;7.97;3.40;;;;;;;13.88;100.00;99494.47;12183588;19;20033;-82
2022/12/25 13:30:35;;;;;;;6.20;3.15;;;;;;;13.87;100.00;99492.81;12203372;19;20027;-82
2022/12/25 13:34:42;;;;;;;7.72;2.95;;;;;;;13.93;100.00;99497.25;12202939;19;20011;-82
2022/12/25 13:38:45;;;;;;;6.30;3.00;;;;;;;13.97;100.00;99487.25;12182193;19;20010;-82
2022/12/25 13:43:26;;;;;;;5.10;2.58;;;;;;;14.06;100.00;99480.03;12205896;19;20180;-82
2022/12/25 13:47:35;;;;;;;7.57;2.67;;;;;;;14.09;100.00;99462.84;12182327;19;20006;-81
2022/12/25 13:51:37;;;;;;;5.40;2.53;;;;;;;14.11;100.00;99462.56;12200853;19;20014;-83
2022/12/25 13:55:42;;;;;;;6.03;2.75;;;;;;;14.09;100.00;99457.31;12197062;19;20457;-82
2022/12/25 14:00:03;;;;;;;7.95;3.13;;;;;;;14.10;100.00;99447.06;12173557;19;20013;-81
2022/12/25 14:04:13;;;;;;;5.28;2.22;;;;;;;14.06;100.00;99435.69;12196557;19;19998;-83
2022/12/25 14:08:20;;;;;;;5.22;2.97;;;;;;;13.95;100.00;99431.31;12175896;19;20006;-81
2022/12/25 14:12:23;;;;;;;9.88;2.60;;;;;;;13.88;100.00;99439.09;12193961;19;20030;-81
2022/12/25 14:16:25;;;;;;;3.67;1.98;;;;;;;13.89;100.00;99441.59;12192725;19;20030;-81
2022/12/25 14:20:32;;;;;;;4.68;2.50;;;;;;;13.93;100.00;99436.31;12173973;19;20031;-82
2022/12/25 14:24:34;;;;;;;4.13;2.30;;;;;;;13.97;100.00;99431.84;12194662;19;20014;-82
2022/12/25 14:28:36;;;;;;;3.40;1.83;;;;;;;13.96;100.00;99432.97;12196118;19;20055;-81
2022/12/25 14:32:43;;;;;;;6.85;2.33;;;;;;;13.94;100.00;99440.72;12172731;19;20002;-80
2022/12/25 14:36:45;;;;;;;4.38;2.58;;;;;;;13.87;100.00;99459.59;12192199;19;20467;-81
2022/12/25 14:40:57;;;;;;;5.85;2.78;;;;;;;13.81;100.00;99469.84;12194224;19;20025;-81
2022/12/25 14:45:18;;;;;;;7.30;3.03;;;;;;;13.78;100.00;99453.78;12172266;19;20011;-80
2022/12/25 14:49:23;;;;;;;6.28;3.47;;;;;;;13.72;100.00;99467.94;12192916;19;20046;-80
2022/12/25 14:53:34;;;;;;;5.72;2.53;;;;;;;13.66;100.00;99461.56;12173975;19;21705;-80
2022/12/25 14:57:39;;;;;;;6.60;2.20;;;;;;;13.64;100.00;99459.06;12231334;19;20029;-82
2022/12/25 15:01:41;;;;;;;5.57;2.47;;;;;;;13.65;100.00;99457.13;12242948;19;20049;-83
2022/12/25 15:05:43;;;;;;;3.47;2.17;;;;;;;13.68;100.00;99459.31;12186520;19;20019;-83
2022/12/25 15:09:45;;;;;;;5.38;2.15;;;;;;;13.74;100.00;99449.06;12196047;19;20010;-83
2022/12/25 15:13:46;;;;;;;4.00;1.55;;;;;;;13.81;100.00;99456.00;12202552;19;20030;-82
2022/12/25 15:17:49;;;;;;;4.68;2.10;;;;;;;13.80;100.00;99454.34;12178711;19;20010;-82
2022/12/25 15:21:51;;;;;;;5.50;1.98;;;;;;;13.78;100.00;99453.78;12193539;19;19999;-81
2022/12/25 15:25:52;;;;;;;3.53;2.00;;;;;;;13.89;100.00;99452.66;12208367;19;20345;-81
2022/12/25 15:29:54;;;;;;;4.75;2.08;;;;;;;13.91;100.00;99442.13;12187300;19;20003;-81
2022/12/25 15:34:19;;;;;;;4.78;1.88;;;;;;;13.98;100.00;99438.22;12202573;19;20086;-81
2022/12/25 15:38:21;;;;;;;3.65;1.80;;;;;;;13.95;100.00;99434.09;12184000;19;20007;-83
2022/12/25 15:42:23;;;;;;;3.33;1.98;;;;;;;13.95;100.00;99438.78;12206638;19;20026;-81
2022/12/25 15:46:25;;;;;;;4.53;1.88;;;;;;;13.88;100.00;99439.09;12206721;19;20006;-81
2022/12/25 15:50:28;;;;;;;5.20;2.17;;;;;;;13.89;100.00;99440.72;12183140;19;20006;-83
2022/12/25 15:54:30;;;;;;;4.22;2.33;;;;;;;13.90;100.00;99453.50;12206115;19;20007;-81
2022/12/25 15:58:32;;;;;;;4.60;1.90;;;;;;;13.91;100.00;99457.91;12205420;19;20006;-82
2022/12/25 16:02:34;;;;;;;3.90;2.00;;;;;;;13.89;100.00;99479.50;12183221;19;20002;-82
2022/12/25 16:06:36;;;;;;;3.42;2.05;;;;;;;13.89;100.00;99468.44;12209004;19;20430;-82
2022/12/25 16:10:37;;;;;;;10.68;2.80;;;;;;;13.90;100.00;99475.66;12213304;19;20021;-81
2022/12/25 16:14:41;;;;;;;5.47;2.55;;;;;;;13.87;100.00;99465.94;12183120;19;20010;-82
2022/12/25 16:18:43;;;;;;;4.90;2.50;;;;;;;13.86;100.00;99456.00;12205107;19;20007;-82
2022/12/25 16:22:48;;;;;;;4.30;2.22;;;;;;;13.82;100.00;99459.59;12209271;19;20013;-82
2022/12/25 16:26:49;;;;;;;4.22;2.58;;;;;;;13.75;100.00;99459.06;12188852;19;20006;-82
2022/12/25 16:30:51;;;;;;;4.82;2.17;;;;;;;13.71;100.00;99453.22;12208834;19;20002;-81
2022/12/25 16:34:53;;;;;;;3.67;2.30;;;;;;;13.62;100.00;99438.28;12201422;19;20003;-81
2022/12/25 16:38:55;;;;;;;3.97;2.08;;;;;;;13.67;100.00;99435.53;12180264;19;20479;-82
2022/12/25 16:42:57;;;;;;;3.90;2.28;;;;;;;13.59;100.00;99427.78;12205818;19;20098;-83
2022/12/25 16:46:58;;;;;;;5.63;2.50;;;;;;;13.56;100.00;99437.47;12200249;19;20013;-81
2022/12/25 16:51:07;;;;;;;3.78;2.22;;;;;;;13.55;100.00;99448.84;12185699;19;20003;-82
2022/12/25 16:55:09;;;;;;;4.45;2.83;;;;;;;13.58;100.00;99470.44;12208953;19;20007;-81
2022/12/25 16:59:10;;;;;;;4.07;2.67;;;;;;;13.57;100.00;99468.78;12185836;19;20006;-82
2022/12/25 17:03:12;;;;;;;4.30;2.63;;;;;;;13.53;100.00;99462.94;12203557;19;20007;-81
2022/12/25 17:07:16;;;;;;;5.73;2.40;;;;;;;13.50;100.00;99469.03;12204137;19;20098;-82
2022/12/25 17:11:22;;;;;;;5.22;2.55;;;;;;;13.47;100.00;99468.75;12186964;19;20006;-82
2022/12/25 17:15:24;;;;;;;4.50;2.70;;;;;;;13.39;100.00;99459.09;12201380;19;20026;-82
2022/12/25 17:19:25;;;;;;;6.80;2.53;;;;;;;13.22;100.00;99451.84;12202274;19;20003;-82
2022/12/25 17:23:27;;;;;;;5.97;3.28;;;;;;;13.18;100.00;99472.06;12182636;19;20014;-82
2022/12/25 17:27:28;;;;;;;5.53;3.03;;;;;;;13.13;100.00;99478.41;12210150;19;20007;-82
2022/12/25 17:31:30;;;;;;;5.63;3.33;;;;;;;13.08;100.00;99474.81;12210638;19;20019;-82
2022/12/25 17:35:35;;;;;;;6.50;3.13;;;;;;;13.00;100.00;99477.00;12184016;19;20043;-81
2022/12/25 17:39:37;;;;;;;4.57;2.85;;;;;;;12.98;100.00;99481.97;12207202;19;20026;-82
2022/12/25 17:43:40;;;;;;;6.40;3.50;;;;;;;12.99;100.00;99477.28;12206750;19;20010;-84
2022/12/25 17:47:42;;;;;;;6.05;3.65;;;;;;;13.08;100.00;99463.72;12183359;19;20063;-81
2022/12/25 17:51:45;;;;;;;6.38;3.30;;;;;;;13.11;100.00;99464.00;12199255;19;20007;-82
2022/12/25 17:55:46;;;;;;;5.00;3.08;;;;;;;13.15;100.00;99465.13;12197917;19;20007;-83
2022/12/25 17:59:48;;;;;;;6.88;3.50;;;;;;;13.13;100.00;99472.88;12179885;19;20011;-81
2022/12/25 18:03:50;;;;;;;6.70;3.30;;;;;;;13.04;100.00;99460.69;12203154;19;20010;-81
2022/12/25 18:07:52;;;;;;;8.90;3.20;;;;;;;13.04;100.00;99452.41;12203179;19;20267;-81
2022/12/25 18:11:54;;;;;;;6.67;3.90;;;;;;;12.99;100.00;99455.16;12182074;19;20003;-81
2022/12/25 18:15:56;;;;;;;5.88;3.03;;;;;;;12.96;100.00;99458.47;12204453;19;20348;-81
2022/12/25 18:19:58;;;;;;;7.50;3.40;;;;;;;12.98;100.00;99461.78;12204692;19;20031;-80
2022/12/25 18:24:02;;;;;;;8.07;3.38;;;;;;;13.06;100.00;99466.78;12179715;19;20010;-81
2022/12/25 18:28:04;;;;;;;6.30;3.22;;;;;;;13.10;100.00;99476.19;12196505;19;20469;-81
2022/12/25 18:32:06;;;;;;;6.53;3.60;;;;;;;13.17;100.00;99462.91;12187000;19;20680;-81
2022/12/25 18:36:10;;;;;;;10.50;5.00;;;;;;;13.17;100.00;99468.44;12197825;19;20054;-81
2022/12/25 18:40:12;;;;;;;7.93;3.65;;;;;;;13.13;100.00;99477.59;12213282;19;20031;-83
2022/12/25 18:44:14;;;;;;;9.35;4.30;;;;;;;13.18;100.00;99480.38;12185549;19;20383;-81
2022/12/25 18:48:16;;;;;;;7.18;3.22;;;;;;;13.16;100.00;99486.16;12210586;19;20007;-79
2022/12/25 18:52:17;;;;;;;6.47;3.80;;;;;;;13.15;100.00;99458.78;12241039;19;20349;-82
2022/12/25 18:56:39;;;;;;;6.38;3.58;;;;;;;13.15;100.00;99450.47;12240660;19;19999;-83
2022/12/25 19:00:41;;;;;;;8.15;3.97;;;;;;;13.17;100.00;99432.47;12244397;19;20003;-81
2022/12/25 19:04:45;;;;;;;8.57;4.35;;;;;;;13.22;100.00;99442.72;12223957;19;20022;-80
2022/12/25 19:08:47;;;;;;;7.57;4.35;;;;;;;13.22;100.00;99448.25;12197696;19;20010;-80
2022/12/25 19:12:49;;;;;;;7.60;4.67;;;;;;;13.21;100.00;99432.78;12219442;19;20064;-81
2022/12/25 19:16:51;;;;;;;8.65;5.05;;;;;;;13.17;100.00;99440.78;12220638;19;20268;-81
2022/12/25 19:20:53;;;;;;;8.20;4.45;;;;;;;13.16;100.00;99447.41;12201467;19;20011;-81
2022/12/25 19:24:54;;;;;;;7.95;4.65;;;;;;;13.14;100.00;99433.03;12212693;19;20007;-80
2022/12/25 19:28:56;;;;;;;8.50;4.90;;;;;;;13.16;100.00;99424.47;12219590;19;19998;-80
2022/12/25 19:32:58;;;;;;;7.70;4.75;;;;;;;13.15;100.00;99431.94;12188339;19;20007;-82
2022/12/25 19:36:59;;;;;;;9.57;5.38;;;;;;;13.16;100.00;99439.13;12206024;19;20015;-80
2022/12/25 19:41:10;;;;;;;9.77;5.93;;;;;;;13.14;100.00;99444.09;12212218;19;20036;-82
2022/12/25 19:45:11;;;;;;;10.63;5.40;;;;;;;13.08;100.00;99456.25;12201911;19;20002;-81
2022/12/25 19:49:13;;;;;;;10.00;5.20;;;;;;;13.03;100.00;99461.81;12213764;19;20700;-81
2022/12/25 19:53:16;;;;;;;12.35;5.20;;;;;;;13.02;100.00;99465.66;12201303;19;20030;-80
2022/12/25 19:57:17;;;;;;;;;;;;;;;12.92;100.00;99480.31;12221039;19;20066;-81
2022/12/25 20:01:21;;;;;;;9.93;5.28;;;;;;;12.94;100.00;99471.75;12253672;19;19906;-83
2022/12/25 20:05:23;;;;;;;10.60;5.30;;;;;;;12.88;100.00;99464.53;12222193;19;20119;-82
2022/12/25 20:09:24;;;;;;;8.15;4.78;;;;;;;12.86;100.00;99461.22;12209166;19;20086;-81
2022/12/25 20:13:26;;;;;;;10.40;4.55;;;;;;;12.87;100.00;99460.94;12209565;19;20687;-83
2022/12/25 20:17:27;;;;;;;10.25;6.07;;;;;;;12.86;100.00;99464.00;12188664;19;20022;-80
2022/12/25 20:21:29;;;;;;;12.27;4.97;;;;;;;12.85;100.00;99478.91;12230804;19;20003;-82
2022/12/25 20:25:31;;;;;;;11.00;5.47;;;;;;;12.84;100.00;99482.78;12224462;19;20007;-81
2022/12/25 20:29:32;;;;;;;12.45;6.82;;;;;;;12.84;100.00;99489.13;12194330;19;20077;-81